createdAt,value
2019-06-08T08:54:57.559Z,1.15
2019-06-08T08:57:25.790Z,1.17
2019-06-08T08:59:58.140Z,1.10
2019-06-08T09:02:27.741Z,1.20
2019-06-08T09:05:01.270Z,1.17
2019-06-08T09:07:28.465Z,1.43
2019-06-08T09:10:00.550Z,1.12
2019-06-08T09:12:29.336Z,1.20
2019-06-08T09:15:01.887Z,1.20
2019-06-08T09:17:29.944Z,1.10
2019-06-08T09:20:03.281Z,1.00
2019-06-08T09:22:31.219Z,1.07
2019-06-08T09:25:03.173Z,1.07
2019-06-08T09:27:31.913Z,1.20
2019-06-08T09:30:04.407Z,1.20
2019-06-08T09:32:33.460Z,1.20
2019-06-08T09:35:04.808Z,0.90
2019-06-08T09:37:33.590Z,1.05
2019-06-08T09:40:03.742Z,1.17
2019-06-08T09:42:33.153Z,1.30
2019-06-08T09:45:05.354Z,1.20
2019-06-08T09:47:33.526Z,1.03
2019-06-08T09:50:05.594Z,1.12
2019-06-08T09:52:40.683Z,0.98
2019-06-08T09:55:09.269Z,1.00
2019-06-08T09:57:38.543Z,1.10
2019-06-08T10:00:15.404Z,1.27
2019-06-08T10:02:39.421Z,1.07
2019-06-08T10:05:09.167Z,1.50
2019-06-08T10:07:39.016Z,1.20
2019-06-08T10:10:09.787Z,1.05
2019-06-08T10:12:41.055Z,1.50
2019-06-08T10:15:11.901Z,1.10
2019-06-08T10:17:41.406Z,1.30
2019-06-08T10:20:10.916Z,0.98
2019-06-08T10:22:40.418Z,1.40
2019-06-08T10:25:11.154Z,1.47
2019-06-08T10:27:40.845Z,1.10
2019-06-08T10:30:10.659Z,1.10
2019-06-08T10:32:41.259Z,1.30
2019-06-08T10:35:11.194Z,1.12
2019-06-08T10:37:40.649Z,1.42
2019-06-08T10:40:10.042Z,1.22
2019-06-08T10:42:40.246Z,1.30
2019-06-08T10:45:14.645Z,1.50
2019-06-08T10:47:41.286Z,1.20
2019-06-08T10:50:15.098Z,1.30
2019-06-08T10:52:41.866Z,1.00
2019-06-08T10:55:12.215Z,1.40
2019-06-08T10:57:44.654Z,1.90
2019-06-08T11:00:23.225Z,1.22
2019-06-08T11:02:48.929Z,1.00
2019-06-08T11:05:18.703Z,1.10
2019-06-08T11:07:48.178Z,1.20
2019-06-08T11:10:19.129Z,1.30
2019-06-08T11:12:50.339Z,1.40
2019-06-08T11:15:21.404Z,1.55
2019-06-08T11:17:50.770Z,1.00
2019-06-08T11:20:20.218Z,1.20
2019-06-08T11:22:50.154Z,1.00
2019-06-08T11:25:20.017Z,1.10
2019-06-08T11:27:49.199Z,0.87
2019-06-08T11:30:23.411Z,0.95
2019-06-08T11:32:49.579Z,1.00
2019-06-08T11:35:19.994Z,1.30
2019-06-08T11:37:49.435Z,1.17
2019-06-08T11:40:20.773Z,0.98
2019-06-08T11:42:49.785Z,1.40
2019-06-08T11:45:19.310Z,1.00
2019-06-08T11:47:48.697Z,1.20
2019-06-08T11:50:19.588Z,1.03
2019-06-08T11:52:49.337Z,1.15
2019-06-08T11:55:19.084Z,1.02
2019-06-08T11:57:48.881Z,1.60
2019-06-08T12:00:27.524Z,1.35
2019-06-08T12:02:52.685Z,0.93
2019-06-08T12:05:22.063Z,1.20
2019-06-08T12:07:51.526Z,1.30
2019-06-08T12:10:20.674Z,1.52
2019-06-08T12:12:49.952Z,1.20
2019-06-08T12:15:21.156Z,0.90
2019-06-08T12:17:50.587Z,0.93
2019-06-08T12:20:24.404Z,0.80
2019-06-08T12:22:54.053Z,1.05
2019-06-08T12:25:23.408Z,1.20
2019-06-08T12:27:52.905Z,1.30
2019-06-08T12:30:25.822Z,0.90
2019-06-08T12:32:54.470Z,1.00
2019-06-08T12:35:24.001Z,1.00
2019-06-08T12:37:53.377Z,0.85
2019-06-08T12:40:22.740Z,1.17
2019-06-08T12:42:52.227Z,1.30
2019-06-08T12:45:21.954Z,0.95
2019-06-08T12:47:51.455Z,1.00
2019-06-08T12:50:21.519Z,1.17
2019-06-08T12:52:50.953Z,0.93
2019-06-08T12:55:25.087Z,1.05
2019-06-08T12:57:51.973Z,1.20
2019-06-08T13:00:21.592Z,0.90
2019-06-08T13:02:51.247Z,1.10
2019-06-08T13:05:22.833Z,1.15
2019-06-08T13:07:52.898Z,1.00
2019-06-08T13:10:24.307Z,0.90
2019-06-08T13:12:53.863Z,1.12
2019-06-08T13:15:23.360Z,1.05
2019-06-08T13:17:52.709Z,1.12
2019-06-08T13:20:22.551Z,1.02
2019-06-08T13:22:52.155Z,1.20
2019-06-08T13:25:36.456Z,1.15
2019-06-08T13:27:52.566Z,1.10
2019-06-08T13:30:25.829Z,1.02
2019-06-08T13:32:53.198Z,1.20
2019-06-08T13:35:22.653Z,1.12
2019-06-08T13:37:52.491Z,1.37
2019-06-08T13:40:23.652Z,1.20
2019-06-08T13:42:53.270Z,1.12
2019-06-08T13:45:23.520Z,1.10
2019-06-08T13:47:53.064Z,0.80
2019-06-08T13:50:23.946Z,1.20
2019-06-08T13:52:53.567Z,0.95
2019-06-08T13:56:00.879Z,1.00
2019-06-08T13:58:33.446Z,1.02
2019-06-08T14:01:01.384Z,1.50
2019-06-08T14:03:30.740Z,1.60
2019-06-08T14:06:00.165Z,1.20
2019-06-08T14:08:32.938Z,1.30
2019-06-08T14:11:01.109Z,1.20
2019-06-08T14:13:34.184Z,1.42
2019-06-08T14:16:01.739Z,1.30
2019-06-08T14:18:34.125Z,1.55
2019-06-08T14:21:02.807Z,1.27
2019-06-08T14:23:32.784Z,1.32
2019-06-08T14:26:02.113Z,1.42
2019-06-08T14:28:31.630Z,1.30
2019-06-08T14:31:01.467Z,1.57
2019-06-08T14:33:33.437Z,1.30
2019-06-08T14:36:02.487Z,1.30
2019-06-08T14:38:38.441Z,1.55
2019-06-08T14:41:04.495Z,0.90
2019-06-08T14:43:34.073Z,1.02
2019-06-08T14:46:04.763Z,1.40
2019-06-08T14:48:34.235Z,1.27
2019-06-08T14:51:03.633Z,1.65
2019-06-08T14:53:33.107Z,1.20
2019-06-08T14:56:08.364Z,1.20
2019-06-08T14:58:38.625Z,1.35
2019-06-08T15:01:08.127Z,1.67
2019-06-08T15:03:38.141Z,1.17
2019-06-08T15:06:09.171Z,1.50
2019-06-08T15:08:38.637Z,1.82
2019-06-08T15:11:08.580Z,1.95
2019-06-08T15:13:40.479Z,1.95
2019-06-08T15:16:10.624Z,1.80
2019-06-08T15:18:40.311Z,1.60
2019-06-08T15:21:09.765Z,1.00
2019-06-08T15:23:39.671Z,1.42
2019-06-08T15:26:23.220Z,1.77
2019-06-08T15:28:40.750Z,1.57
2019-06-08T15:31:10.185Z,1.40
2019-06-08T15:33:39.759Z,1.75
2019-06-08T15:36:09.414Z,1.60
2019-06-08T15:38:39.696Z,1.70
2019-06-08T15:41:09.542Z,2.10
2019-06-08T15:43:40.352Z,1.80
2019-06-08T15:46:09.802Z,1.95
2019-06-08T15:48:39.234Z,1.92
2019-06-08T15:51:08.487Z,1.87
2019-06-08T15:53:40.403Z,2.27
2019-06-08T15:56:09.185Z,1.67
2019-06-08T15:58:40.501Z,2.30
2019-06-08T16:01:09.732Z,1.87
2019-06-08T16:03:40.982Z,1.87
2019-06-08T16:08:03.329Z,2.10
2019-06-08T16:12:03.355Z,2.15
2019-06-08T16:14:33.281Z,2.25
2019-06-08T16:17:05.023Z,1.70
2019-06-08T16:19:35.956Z,2.33
2019-06-08T16:22:08.186Z,1.65
2019-06-08T16:24:38.676Z,1.70
2019-06-08T16:27:10.515Z,1.70
2019-06-08T16:29:40.850Z,2.10
2019-06-08T16:32:11.578Z,2.25
2019-06-08T16:34:42.003Z,3.20
2019-06-08T16:37:11.638Z,2.25
2019-06-08T16:39:41.110Z,1.67
2019-06-08T16:42:10.561Z,1.90
2019-06-08T16:44:40.018Z,1.42
2019-06-08T16:47:09.526Z,1.60
2019-06-08T16:49:39.652Z,1.67
2019-06-08T16:52:09.200Z,2.10
2019-06-08T16:54:38.979Z,2.37
2019-06-08T16:57:11.312Z,2.65
2019-06-08T16:59:42.631Z,2.37
2019-06-08T17:04:16.824Z,3.58
2019-06-08T17:08:07.354Z,2.47
2019-06-08T17:12:05.263Z,2.45
2019-06-08T17:16:04.407Z,2.22
2019-06-08T17:18:36.223Z,2.70
2019-06-08T17:21:11.388Z,2.22
2019-06-08T17:23:40.784Z,2.05
2019-06-08T17:26:10.182Z,2.20
2019-06-08T17:28:41.093Z,2.08
2019-06-08T17:31:11.856Z,2.30
2019-06-08T17:33:41.476Z,2.47
2019-06-08T17:36:11.059Z,2.37
2019-06-08T17:38:41.493Z,2.83
2019-06-08T17:41:10.988Z,1.95
2019-06-08T17:43:40.433Z,2.00
2019-06-08T17:46:09.862Z,2.42
2019-06-08T17:48:40.727Z,2.10
2019-06-08T17:51:10.168Z,2.20
2019-06-08T17:53:40.872Z,2.35
2019-06-08T17:56:10.554Z,2.47
2019-06-08T17:58:41.058Z,2.75
2019-06-08T18:01:10.826Z,2.30
2019-06-08T18:03:41.449Z,2.40
2019-06-08T18:06:11.243Z,3.08
2019-06-08T18:08:42.189Z,2.35
2019-06-08T18:11:11.914Z,2.50
2019-06-08T18:13:42.997Z,2.95
2019-06-08T18:16:12.404Z,2.42
2019-06-08T18:18:42.467Z,2.12
2019-06-08T18:21:14.539Z,1.80
2019-06-08T18:23:45.337Z,1.90
2019-06-08T18:26:17.238Z,1.77
2019-06-08T18:28:48.555Z,2.10
2019-06-08T18:31:18.188Z,3.15
2019-06-08T18:33:50.431Z,2.70
2019-06-08T18:36:21.383Z,2.80
2019-06-08T18:38:50.789Z,1.92
2019-06-08T18:41:20.303Z,2.05
2019-06-08T18:43:52.537Z,2.90
2019-06-08T18:46:20.763Z,1.90
2019-06-08T18:48:52.407Z,3.17
2019-06-08T18:52:09.393Z,3.12
2019-06-08T18:54:41.634Z,2.45
2019-06-08T18:57:12.581Z,2.45
2019-06-08T18:59:46.690Z,2.65
2019-06-08T19:02:14.503Z,2.70
2019-06-08T19:04:45.009Z,2.90
2019-06-08T19:07:17.568Z,2.40
2019-06-08T19:09:49.944Z,2.37
2019-06-08T19:12:19.824Z,2.60
2019-06-08T19:14:52.345Z,2.37
2019-06-08T19:17:22.068Z,2.30
2019-06-08T19:22:38.533Z,2.65
2019-06-08T19:25:07.888Z,2.65
2019-06-08T19:27:45.105Z,2.77
2019-06-08T19:30:10.478Z,2.60
2019-06-08T19:32:41.765Z,2.75
2019-06-08T19:35:11.127Z,2.10
2019-06-08T19:37:42.191Z,1.60
2019-06-08T19:40:13.821Z,2.65
2019-06-08T19:42:51.039Z,1.98
2019-06-08T19:45:18.180Z,2.00
2019-06-08T19:47:48.873Z,2.10
2019-06-08T19:50:18.390Z,2.42
2019-06-08T19:52:53.097Z,2.27
2019-06-08T19:55:22.823Z,2.20
2019-06-08T19:57:52.453Z,1.92
2019-06-08T20:00:21.839Z,2.10
2019-06-08T20:02:54.993Z,2.22
2019-06-08T20:05:22.483Z,2.10
2019-06-08T20:07:53.358Z,2.25
2019-06-08T20:10:23.138Z,2.35
2019-06-08T20:12:53.615Z,2.37
2019-06-08T20:15:23.244Z,2.27
2019-06-08T20:17:53.952Z,2.00
2019-06-08T20:20:23.600Z,2.33
2019-06-08T20:22:53.606Z,2.20
2019-06-08T20:25:22.921Z,2.20
2019-06-08T20:27:53.762Z,2.10
2019-06-08T20:30:23.464Z,2.20
2019-06-08T20:32:54.417Z,2.20
2019-06-08T20:35:24.322Z,2.75
2019-06-08T20:37:53.995Z,3.12
2019-06-08T20:40:23.638Z,2.80
2019-06-08T20:42:54.668Z,2.58
2019-06-08T20:45:24.489Z,2.35
2019-06-08T20:47:54.194Z,2.58
2019-06-08T20:50:23.648Z,3.10
2019-06-08T20:52:53.870Z,2.35
2019-06-08T20:55:23.418Z,3.07
2019-06-08T20:57:53.743Z,2.35
2019-06-08T21:00:23.454Z,2.30
2019-06-08T21:02:53.577Z,2.37
2019-06-08T21:05:23.936Z,3.00
2019-06-08T21:07:54.565Z,3.00
2019-06-08T21:10:24.605Z,3.02
2019-06-08T21:12:55.702Z,2.58
2019-06-08T21:15:27.277Z,2.65
2019-06-08T21:20:09.756Z,2.77
2019-06-08T21:22:39.158Z,2.58
2019-06-08T21:25:08.919Z,2.90
2019-06-08T21:27:38.700Z,2.00
2019-06-08T21:30:20.639Z,2.00
2019-06-08T21:32:40.010Z,2.40
2019-06-08T21:35:09.551Z,2.15
2019-06-08T21:37:39.059Z,2.40
2019-06-08T21:40:08.747Z,2.43
2019-06-08T21:42:38.263Z,2.12
2019-06-08T21:45:09.654Z,3.10
2019-06-08T21:47:38.911Z,2.62
2019-06-08T21:50:08.525Z,2.47
2019-06-08T21:52:38.123Z,2.62
2019-06-08T21:55:07.730Z,2.40
2019-06-08T21:57:37.219Z,2.47
2019-06-08T22:00:29.339Z,2.20
2019-06-08T22:02:43.318Z,2.40
2019-06-08T22:05:13.835Z,2.40
2019-06-08T22:07:43.340Z,2.77
2019-06-08T22:10:13.055Z,2.50
2019-06-08T22:12:42.554Z,2.10
2019-06-08T22:16:17.134Z,2.27
2019-06-08T22:18:47.452Z,2.20
2019-06-08T22:21:18.106Z,2.03
2019-06-08T22:23:51.003Z,2.22
2019-06-08T22:26:21.272Z,2.33
2019-06-08T22:28:52.073Z,2.30
2019-06-08T22:31:23.217Z,1.63
2019-06-08T22:33:54.237Z,1.83
2019-06-08T22:36:23.939Z,2.27
2019-06-08T22:38:54.371Z,1.87
2019-06-08T22:41:24.103Z,2.20
2019-06-08T22:43:54.939Z,2.52
2019-06-08T22:46:24.361Z,1.87
2019-06-08T22:48:54.585Z,2.33
2019-06-08T22:51:24.575Z,1.93
2019-06-08T22:53:55.004Z,2.20
2019-06-08T22:56:27.479Z,2.60
2019-06-08T22:59:02.613Z,2.20
2019-06-08T23:01:28.423Z,1.90
2019-06-08T23:04:01.850Z,2.20
2019-06-08T23:06:29.190Z,2.03
2019-06-08T23:09:00.725Z,2.30
2019-06-08T23:11:29.798Z,2.03
2019-06-08T23:14:01.390Z,2.30
2019-06-08T23:16:30.269Z,2.53
2019-06-08T23:19:00.600Z,2.03
2019-06-08T23:24:13.831Z,3.20
2019-06-08T23:26:43.450Z,2.57
2019-06-08T23:29:27.361Z,2.40
2019-06-08T23:31:59.709Z,2.50
2019-06-08T23:34:27.934Z,2.60
2019-06-08T23:37:01.965Z,2.30
2019-06-08T23:39:28.656Z,2.73
2019-06-08T23:41:57.984Z,1.92
2019-06-08T23:44:28.314Z,1.90
2019-06-08T23:46:59.596Z,2.07
2019-06-08T23:49:29.151Z,2.20
2019-06-08T23:52:01.145Z,2.00
2019-06-08T23:54:30.772Z,2.17
2019-06-08T23:57:01.156Z,2.20
2019-06-08T23:59:30.852Z,1.93
